Time;durP1;ratioP1;P1;durP2;ratioP2;P2;SDS_P1;SDS_P2;PMS_P1;PMS_P2;Temp;Humidity;BMP_temperature;BMP_pressure;BME280_temperature;BME280_humidity;BME280_pressure;Samples;Min_cycle;Max_cycle;Signal;HPM_P1;HPM_P2
2022/01/26 00:06:25;;;;;;;79.67;28.40;;;;;;;;;;5039381;28;20188;-68
2022/01/26 00:08:50;;;;;;;82.97;29.27;;;;;;;;;;5043607;28;20209;-68
2022/01/26 00:11:15;;;;;;;75.30;26.80;;;;;;;;;;5039406;28;21055;-69
2022/01/26 00:13:41;;;;;;;82.50;29.30;;;;;;;;;;5044602;28;20182;-68
2022/01/26 00:16:12;;;;;;;79.67;29.20;;;;;;;;;;5042398;28;20220;-68
2022/01/26 00:18:38;;;;;;;90.23;31.90;;;;;;;;;;5046300;28;20597;-68
2022/01/26 00:21:09;;;;;;;87.27;30.47;;;;;;;;;;5045910;28;20272;-68
2022/01/26 00:24:05;;;;;;;88.37;30.23;;;;;;;;;;5041853;28;20481;-68
2022/01/26 00:29:16;;;;;;;95.10;31.40;;;;;;;;;;5044225;28;20263;-67
2022/01/26 00:40:35;;;;;;;91.37;28.47;;;;;;;;;;5042648;28;20219;-67
2022/01/26 00:43:14;;;;;;;86.40;28.30;;;;;;;;;;5038218;28;20560;-68
2022/01/26 00:45:41;;;;;;;83.73;28.80;;;;;;;;;;5040975;28;20178;-68
2022/01/26 00:48:09;;;;;;;83.47;29.20;;;;;;;;;;5042274;28;20186;-68
2022/01/26 00:50:36;;;;;;;80.40;28.90;;;;;;;;;;5041156;28;20656;-68
2022/01/26 00:53:01;;;;;;;89.63;29.47;;;;;;;;;;5045848;28;20178;-68
2022/01/26 00:55:27;;;;;;;91.27;31.07;;;;;;;;;;5041630;28;20232;-68
2022/01/26 00:57:52;;;;;;;87.83;28.63;;;;;;;;;;5041705;28;20178;-68
2022/01/26 01:00:25;;;;;;;84.10;28.50;;;;;;;;;;5039874;28;20285;-68
2022/01/26 01:02:52;;;;;;;77.40;27.23;;;;;;;;;;5038851;28;20184;-69
2022/01/26 01:05:22;;;;;;;77.73;27.30;;;;;;;;;;5034736;28;20185;-69
2022/01/26 01:07:51;;;;;;;75.33;26.07;;;;;;;;;;5041385;28;20549;-68
2022/01/26 01:10:21;;;;;;;89.93;30.27;;;;;;;;;;5042350;28;20264;-68
2022/01/26 01:12:48;;;;;;;79.20;28.23;;;;;;;;;;5042278;28;20292;-69
2022/01/26 01:15:14;;;;;;;90.53;31.67;;;;;;;;;;5042373;28;20184;-68
2022/01/26 01:17:45;;;;;;;87.90;29.60;;;;;;;;;;5040018;28;20251;-67
2022/01/26 01:33:05;;;;;;;87.87;30.43;;;;;;;;;;5042304;28;20189;-68
2022/01/26 01:35:32;;;;;;;88.73;30.90;;;;;;;;;;5037418;28;20889;-68
2022/01/26 01:38:06;;;;;;;85.23;30.10;;;;;;;;;;5042367;28;20204;-68
2022/01/26 01:40:32;;;;;;;84.30;29.53;;;;;;;;;;5040930;28;20627;-68
2022/01/26 01:42:57;;;;;;;90.90;30.37;;;;;;;;;;5041704;28;20181;-68
2022/01/26 01:45:37;;;;;;;88.17;30.67;;;;;;;;;;5042444;28;20198;-68
2022/01/26 01:48:04;;;;;;;87.93;29.17;;;;;;;;;;5041800;28;20177;-68
2022/01/26 01:50:29;;;;;;;94.03;29.33;;;;;;;;;;5040435;28;20217;-68
2022/01/26 01:53:01;;;;;;;97.60;32.27;;;;;;;;;;5041362;28;20243;-68
2022/01/26 01:55:29;;;;;;;85.37;29.53;;;;;;;;;;5042685;28;20192;-68
2022/01/26 01:57:56;;;;;;;90.83;29.97;;;;;;;;;;5040160;28;20268;-68
2022/01/26 02:00:22;;;;;;;89.43;31.10;;;;;;;;;;5039420;28;20173;-68
2022/01/26 02:02:47;;;;;;;92.80;31.03;;;;;;;;;;5037256;28;20269;-68
2022/01/26 02:05:13;;;;;;;91.10;29.53;;;;;;;;;;5036390;28;20203;-68
2022/01/26 02:07:38;;;;;;;97.83;32.27;;;;;;;;;;5042820;28;20212;-68
2022/01/26 02:10:04;;;;;;;94.47;30.13;;;;;;;;;;5038234;28;20684;-68
2022/01/26 02:12:32;;;;;;;93.83;31.97;;;;;;;;;;5039668;28;20180;-67
2022/01/26 02:15:06;;;;;;;92.53;29.77;;;;;;;;;;5041114;28;20595;-67
2022/01/26 02:20:44;;;;;;;104.43;31.87;;;;;;;;;;5046537;28;20216;-67
2022/01/26 02:55:53;;;;;;;103.10;32.37;;;;;;;;;;5042973;28;20580;-67
2022/01/26 03:04:29;;;;;;;97.20;31.50;;;;;;;;;;5012768;28;20195;-68
2022/01/26 03:06:55;;;;;;;102.60;30.53;;;;;;;;;;5043571;28;20209;-67
2022/01/26 03:09:26;;;;;;;98.93;30.37;;;;;;;;;;5042154;28;20291;-67
2022/01/26 03:11:52;;;;;;;97.23;30.97;;;;;;;;;;5045958;28;20722;-67
2022/01/26 03:14:33;;;;;;;103.30;32.40;;;;;;;;;;5043276;28;20270;-68
2022/01/26 03:17:11;;;;;;;102.70;32.50;;;;;;;;;;5045824;28;20667;-68
2022/01/26 03:19:41;;;;;;;99.47;30.57;;;;;;;;;;5044053;28;20555;-68
2022/01/26 03:30:20;;;;;;;96.80;29.63;;;;;;;;;;5039516;28;20274;-68
2022/01/26 03:35:43;;;;;;;96.57;28.33;;;;;;;;;;5044200;28;20228;-68
2022/01/26 03:38:17;;;;;;;88.03;28.07;;;;;;;;;;5042912;28;20602;-68
2022/01/26 03:40:43;;;;;;;93.03;28.23;;;;;;;;;;5042963;28;20537;-68
2022/01/26 03:43:08;;;;;;;88.10;29.07;;;;;;;;;;5044174;28;20660;-68
2022/01/26 03:45:34;;;;;;;86.23;27.07;;;;;;;;;;5042297;28;20221;-68
2022/01/26 03:47:59;;;;;;;93.27;29.90;;;;;;;;;;5043226;28;20190;-67
2022/01/26 03:50:25;;;;;;;88.03;27.27;;;;;;;;;;5042673;28;20229;-67
2022/01/26 03:52:51;;;;;;;84.90;27.17;;;;;;;;;;5044414;28;20235;-68
2022/01/26 03:55:16;;;;;;;94.27;27.97;;;;;;;;;;5043190;28;20297;-68
2022/01/26 03:57:42;;;;;;;85.57;27.50;;;;;;;;;;5045078;28;20567;-67
2022/01/26 04:00:08;;;;;;;91.90;28.03;;;;;;;;;;5047162;28;20201;-68
2022/01/26 04:02:35;;;;;;;87.90;26.10;;;;;;;;;;5040652;28;20729;-68
2022/01/26 04:05:04;;;;;;;96.77;28.50;;;;;;;;;;5044619;28;20273;-68
2022/01/26 04:07:30;;;;;;;88.70;28.07;;;;;;;;;;5040247;28;20506;-68
2022/01/26 04:10:03;;;;;;;93.20;28.13;;;;;;;;;;5039085;28;20240;-68
2022/01/26 04:12:29;;;;;;;84.27;26.10;;;;;;;;;;5042233;28;20601;-68
2022/01/26 04:15:00;;;;;;;86.57;27.37;;;;;;;;;;5044663;28;20181;-68
2022/01/26 04:17:25;;;;;;;86.27;28.37;;;;;;;;;;5040032;28;20196;-68
2022/01/26 04:19:56;;;;;;;89.23;28.33;;;;;;;;;;5048348;28;20190;-68
2022/01/26 04:22:28;;;;;;;86.97;28.13;;;;;;;;;;5038098;28;20545;-67
2022/01/26 04:24:55;;;;;;;92.00;28.00;;;;;;;;;;5044542;28;20193;-67
2022/01/26 04:29:47;;;;;;;89.33;27.50;;;;;;;;;;5045023;28;20569;-67
2022/01/26 04:32:14;;;;;;;90.57;27.27;;;;;;;;;;5039425;28;20196;-67
2022/01/26 04:34:40;;;;;;;90.63;26.83;;;;;;;;;;5046865;28;20302;-67
2022/01/26 04:37:19;;;;;;;84.77;26.33;;;;;;;;;;5042272;28;20261;-68
2022/01/26 04:39:52;;;;;;;77.73;24.43;;;;;;;;;;5041679;28;20189;-67
2022/01/26 04:42:41;;;;;;;84.77;24.37;;;;;;;;;;5038617;28;20775;-68
2022/01/26 04:45:09;;;;;;;75.70;23.70;;;;;;;;;;5040581;28;20289;-67
2022/01/26 04:47:35;;;;;;;74.93;23.47;;;;;;;;;;5041694;28;20371;-68
2022/01/26 04:50:01;;;;;;;72.03;23.23;;;;;;;;;;5043427;28;20296;-67
2022/01/26 04:52:26;;;;;;;68.33;21.37;;;;;;;;;;5042912;28;20181;-67
2022/01/26 04:54:52;;;;;;;71.93;22.10;;;;;;;;;;5045388;28;20763;-67
2022/01/26 04:57:18;;;;;;;74.80;22.67;;;;;;;;;;5041488;28;20199;-68
2022/01/26 04:59:43;;;;;;;67.17;21.57;;;;;;;;;;5042783;28;20563;-68
2022/01/26 05:02:08;;;;;;;74.23;22.53;;;;;;;;;;5039464;28;20645;-68
2022/01/26 05:04:34;;;;;;;69.63;21.83;;;;;;;;;;5046207;28;20327;-68
2022/01/26 05:06:59;;;;;;;64.10;19.47;;;;;;;;;;5039819;28;20177;-68
2022/01/26 05:09:24;;;;;;;67.60;20.50;;;;;;;;;;5040337;28;20213;-68
2022/01/26 05:11:53;;;;;;;72.20;21.43;;;;;;;;;;5036086;28;20232;-67
2022/01/26 05:14:18;;;;;;;71.70;20.37;;;;;;;;;;5040620;28;20194;-67
2022/01/26 05:16:44;;;;;;;74.23;22.90;;;;;;;;;;5034241;28;20197;-67
2022/01/26 05:19:09;;;;;;;71.87;22.43;;;;;;;;;;5042155;28;20633;-68
2022/01/26 05:21:35;;;;;;;75.97;23.13;;;;;;;;;;5042148;28;20197;-68
2022/01/26 05:24:01;;;;;;;73.60;23.50;;;;;;;;;;5041499;28;20190;-68
2022/01/26 05:26:26;;;;;;;63.90;20.80;;;;;;;;;;5045508;28;20189;-68
2022/01/26 05:28:52;;;;;;;76.43;22.73;;;;;;;;;;5042788;28;20228;-67
2022/01/26 05:31:17;;;;;;;70.93;22.00;;;;;;;;;;5035948;28;20739;-67
2022/01/26 05:33:43;;;;;;;63.73;22.00;;;;;;;;;;5040455;28;20220;-68
2022/01/26 05:36:09;;;;;;;63.47;20.17;;;;;;;;;;5037181;28;20189;-68
2022/01/26 05:38:34;;;;;;;61.03;20.47;;;;;;;;;;5042083;28;20713;-68
2022/01/26 05:41:02;;;;;;;72.77;21.77;;;;;;;;;;5043273;28;20265;-67
2022/01/26 05:43:33;;;;;;;66.97;20.80;;;;;;;;;;5039694;28;20739;-68
2022/01/26 05:46:05;;;;;;;66.80;19.27;;;;;;;;;;5041642;28;20272;-67
2022/01/26 05:48:31;;;;;;;64.27;20.50;;;;;;;;;;5040624;28;20413;-67
2022/01/26 05:51:05;;;;;;;60.13;19.67;;;;;;;;;;5037241;28;20291;-68
2022/01/26 05:53:31;;;;;;;61.37;19.63;;;;;;;;;;5038971;28;20269;-68
2022/01/26 05:55:58;;;;;;;59.07;19.33;;;;;;;;;;5040911;28;20198;-68
2022/01/26 05:58:24;;;;;;;55.70;18.50;;;;;;;;;;5047389;28;20270;-68
2022/01/26 06:00:49;;;;;;;59.30;18.83;;;;;;;;;;5043977;28;20189;-69
2022/01/26 06:03:14;;;;;;;53.53;17.43;;;;;;;;;;5036583;28;20205;-68
2022/01/26 06:05:40;;;;;;;59.00;17.67;;;;;;;;;;5039904;28;20650;-68
2022/01/26 06:08:05;;;;;;;54.77;17.63;;;;;;;;;;5040271;28;20186;-68
2022/01/26 06:10:31;;;;;;;56.37;17.50;;;;;;;;;;5039625;28;20221;-68
2022/01/26 06:12:57;;;;;;;56.43;18.70;;;;;;;;;;5043200;28;20188;-68
2022/01/26 06:15:22;;;;;;;53.53;17.53;;;;;;;;;;5041022;28;20192;-68
2022/01/26 06:17:48;;;;;;;51.17;16.60;;;;;;;;;;5040880;28;20265;-68
2022/01/26 06:20:13;;;;;;;57.73;18.00;;;;;;;;;;5040101;28;20204;-68
2022/01/26 06:22:39;;;;;;;55.67;18.03;;;;;;;;;;5042904;28;20185;-68
2022/01/26 06:25:07;;;;;;;57.73;18.47;;;;;;;;;;5040537;28;20223;-68
2022/01/26 06:27:36;;;;;;;58.07;18.10;;;;;;;;;;5037741;28;20256;-68
2022/01/26 06:30:04;;;;;;;57.93;18.27;;;;;;;;;;5052571;28;20800;-67
2022/01/26 06:32:30;;;;;;;57.70;19.10;;;;;;;;;;5040100;28;20185;-68
2022/01/26 06:34:56;;;;;;;50.47;16.37;;;;;;;;;;5040677;28;20197;-67
2022/01/26 06:37:22;;;;;;;47.67;17.20;;;;;;;;;;5039849;28;20561;-68
2022/01/26 06:39:47;;;;;;;50.77;18.53;;;;;;;;;;5044560;28;20195;-68
2022/01/26 06:42:16;;;;;;;56.40;18.03;;;;;;;;;;5041220;28;20684;-67
2022/01/26 06:45:11;;;;;;;52.13;18.13;;;;;;;;;;5035449;28;20190;-68
2022/01/26 06:50:13;;;;;;;52.53;17.93;;;;;;;;;;5030727;28;20213;-68
2022/01/26 06:52:38;;;;;;;54.93;18.03;;;;;;;;;;5037612;28;20210;-68
2022/01/26 06:55:04;;;;;;;62.77;18.60;;;;;;;;;;5039027;28;20185;-67
2022/01/26 06:57:29;;;;;;;48.57;16.80;;;;;;;;;;5038041;28;20181;-68
2022/01/26 06:59:55;;;;;;;57.67;17.97;;;;;;;;;;5041385;28;20217;-68
2022/01/26 07:02:20;;;;;;;55.83;17.93;;;;;;;;;;5042998;28;20189;-68
2022/01/26 07:04:45;;;;;;;55.00;18.30;;;;;;;;;;5047319;28;20186;-68
2022/01/26 07:07:11;;;;;;;55.03;18.00;;;;;;;;;;5044775;28;20193;-68
2022/01/26 07:09:37;;;;;;;59.40;18.67;;;;;;;;;;5043754;28;20213;-68
2022/01/26 07:12:02;;;;;;;57.10;19.47;;;;;;;;;;5047022;28;20294;-68
2022/01/26 07:20:34;;;;;;;64.40;20.07;;;;;;;;;;5041802;28;20197;-68
2022/01/26 07:22:41;;;;;;;62.10;20.23;;;;;;;;;;5046861;28;20205;-68
2022/01/26 07:25:06;;;;;;;67.67;21.97;;;;;;;;;;5044941;28;20231;-68
2022/01/26 07:27:32;;;;;;;71.70;22.87;;;;;;;;;;5044218;28;20200;-68
2022/01/26 07:29:59;;;;;;;63.67;21.77;;;;;;;;;;5044228;28;20608;-68
2022/01/26 07:32:26;;;;;;;78.17;25.47;;;;;;;;;;5043622;28;20195;-68
2022/01/26 07:34:51;;;;;;;74.97;25.93;;;;;;;;;;5045644;28;20233;-68
2022/01/26 07:37:18;;;;;;;85.80;26.07;;;;;;;;;;5044203;28;20201;-68
2022/01/26 07:39:47;;;;;;;82.53;27.33;;;;;;;;;;5045802;28;20310;-68
2022/01/26 07:42:14;;;;;;;80.00;27.57;;;;;;;;;;5045697;28;20550;-68
2022/01/26 07:44:40;;;;;;;85.43;29.37;;;;;;;;;;5047357;28;20181;-68
2022/01/26 07:47:06;;;;;;;102.17;33.13;;;;;;;;;;5042937;28;20185;-68
2022/01/26 07:49:31;;;;;;;98.20;32.57;;;;;;;;;;5043875;28;20438;-67
2022/01/26 07:51:56;;;;;;;98.10;33.57;;;;;;;;;;5043628;28;20262;-68
2022/01/26 07:54:23;;;;;;;101.33;32.73;;;;;;;;;;5043988;28;20197;-69
2022/01/26 07:56:48;;;;;;;100.90;33.03;;;;;;;;;;5046988;28;20268;-68
2022/01/26 07:59:14;;;;;;;104.30;34.30;;;;;;;;;;5043724;28;20531;-66
2022/01/26 08:01:39;;;;;;;103.67;35.97;;;;;;;;;;5034698;28;20208;-68
2022/01/26 08:04:05;;;;;;;104.77;34.20;;;;;;;;;;5039414;28;20241;-68
2022/01/26 08:06:30;;;;;;;107.37;35.57;;;;;;;;;;5038770;28;20343;-68
2022/01/26 08:08:56;;;;;;;114.17;36.63;;;;;;;;;;5043193;28;20218;-68
2022/01/26 08:11:24;;;;;;;107.93;36.77;;;;;;;;;;5041349;28;20241;-68
2022/01/26 08:13:49;;;;;;;115.80;37.83;;;;;;;;;;5042116;28;20190;-68
2022/01/26 08:16:15;;;;;;;119.70;38.57;;;;;;;;;;5041980;28;20189;-68
2022/01/26 08:18:40;;;;;;;125.70;39.30;;;;;;;;;;5041259;28;20355;-68
2022/01/26 08:21:06;;;;;;;114.50;39.60;;;;;;;;;;5040274;28;20493;-68
2022/01/26 08:23:33;;;;;;;133.17;40.77;;;;;;;;;;5040793;28;20197;-68
2022/01/26 08:25:59;;;;;;;127.40;41.53;;;;;;;;;;5041229;28;20182;-69
2022/01/26 08:28:33;;;;;;;128.40;42.37;;;;;;;;;;5041254;28;20185;-68
2022/01/26 08:30:58;;;;;;;131.87;43.87;;;;;;;;;;5044106;28;20208;-68
2022/01/26 08:33:23;;;;;;;131.90;41.43;;;;;;;;;;5040899;28;20192;-68
2022/01/26 08:35:49;;;;;;;137.17;43.53;;;;;;;;;;5042339;28;20676;-68
2022/01/26 08:38:14;;;;;;;132.47;42.23;;;;;;;;;;5045200;28;20185;-68
2022/01/26 08:40:40;;;;;;;132.87;43.83;;;;;;;;;;5044224;28;20189;-68
2022/01/26 08:43:05;;;;;;;131.87;43.17;;;;;;;;;;5043793;28;20198;-68
2022/01/26 08:45:31;;;;;;;128.90;43.73;;;;;;;;;;5043284;28;20235;-68
2022/01/26 08:47:57;;;;;;;137.57;44.00;;;;;;;;;;5046558;28;20288;-68
2022/01/26 08:50:23;;;;;;;141.13;43.63;;;;;;;;;;5044369;28;20298;-68
2022/01/26 08:52:49;;;;;;;132.93;43.23;;;;;;;;;;5046383;28;20193;-69
2022/01/26 08:55:14;;;;;;;126.90;42.53;;;;;;;;;;5042388;28;20190;-68
2022/01/26 08:57:39;;;;;;;142.83;46.33;;;;;;;;;;5041989;28;20219;-68
2022/01/26 09:00:08;;;;;;;137.03;43.33;;;;;;;;;;5038206;28;20330;-68
2022/01/26 09:02:34;;;;;;;137.40;44.37;;;;;;;;;;5042319;28;20208;-68
2022/01/26 09:05:00;;;;;;;135.40;41.37;;;;;;;;;;5044692;28;20234;-68
2022/01/26 09:07:25;;;;;;;137.37;44.07;;;;;;;;;;5042896;28;20228;-68
2022/01/26 09:09:50;;;;;;;136.10;44.03;;;;;;;;;;5040271;28;20209;-68
2022/01/26 09:12:18;;;;;;;122.93;41.77;;;;;;;;;;5045796;28;20226;-68
2022/01/26 09:14:45;;;;;;;130.30;45.27;;;;;;;;;;5040306;28;20545;-68
2022/01/26 09:17:11;;;;;;;122.07;42.07;;;;;;;;;;5041250;28;20200;-68
2022/01/26 09:19:38;;;;;;;127.87;43.57;;;;;;;;;;5045120;28;20284;-68
2022/01/26 09:22:07;;;;;;;139.27;46.70;;;;;;;;;;5043183;28;20259;-68
2022/01/26 09:24:33;;;;;;;137.23;44.10;;;;;;;;;;5040273;28;20350;-68
2022/01/26 09:27:00;;;;;;;130.80;43.10;;;;;;;;;;5040333;28;20205;-68
2022/01/26 09:29:26;;;;;;;132.10;44.03;;;;;;;;;;5043958;28;20224;-68
2022/01/26 09:31:52;;;;;;;142.17;45.97;;;;;;;;;;5043765;28;20212;-68
2022/01/26 09:34:19;;;;;;;140.20;45.27;;;;;;;;;;5044857;28;20267;-67
2022/01/26 09:36:45;;;;;;;140.67;44.00;;;;;;;;;;5042358;28;20446;-67
2022/01/26 09:39:11;;;;;;;144.27;45.83;;;;;;;;;;5042198;28;20240;-68
2022/01/26 09:41:38;;;;;;;133.17;42.53;;;;;;;;;;5040468;28;20611;-68
2022/01/26 09:44:05;;;;;;;139.53;45.13;;;;;;;;;;5042740;28;20359;-67
2022/01/26 09:46:31;;;;;;;133.27;45.33;;;;;;;;;;5042328;28;20178;-68
2022/01/26 09:48:58;;;;;;;130.73;43.13;;;;;;;;;;5044019;28;20574;-68
2022/01/26 09:51:23;;;;;;;137.63;43.67;;;;;;;;;;5042976;28;20272;-68
2022/01/26 09:54:03;;;;;;;140.03;44.50;;;;;;;;;;5043281;28;20272;-68
2022/01/26 09:56:29;;;;;;;135.73;45.30;;;;;;;;;;5044409;28;20555;-68
2022/01/26 09:58:54;;;;;;;150.07;45.43;;;;;;;;;;5044156;28;20231;-68
2022/01/26 10:01:20;;;;;;;148.47;46.77;;;;;;;;;;5043404;28;20208;-68
2022/01/26 10:03:46;;;;;;;144.90;46.20;;;;;;;;;;5044206;28;20273;-68
2022/01/26 10:06:26;;;;;;;136.77;44.23;;;;;;;;;;5046314;28;20184;-68
2022/01/26 10:17:24;;;;;;;135.93;42.80;;;;;;;;;;5041578;28;20196;-68
2022/01/26 10:20:03;;;;;;;151.23;44.93;;;;;;;;;;5035363;28;20283;-68
2022/01/26 10:22:34;;;;;;;143.90;43.53;;;;;;;;;;5042404;28;20565;-68
2022/01/26 10:25:07;;;;;;;132.10;43.07;;;;;;;;;;5040680;28;20603;-68
2022/01/26 10:27:43;;;;;;;139.97;43.83;;;;;;;;;;5044050;28;20246;-68
2022/01/26 10:30:12;;;;;;;138.73;43.10;;;;;;;;;;5042340;28;20204;-68
2022/01/26 10:32:39;;;;;;;142.20;43.73;;;;;;;;;;5042854;28;20170;-69
2022/01/26 10:35:06;;;;;;;137.00;44.70;;;;;;;;;;5042867;28;20258;-68
2022/01/26 10:37:32;;;;;;;131.53;43.33;;;;;;;;;;5046952;28;20184;-68
2022/01/26 10:40:12;;;;;;;149.27;44.70;;;;;;;;;;5044875;28;20181;-67
2022/01/26 10:42:37;;;;;;;135.90;42.40;;;;;;;;;;5049228;28;20286;-68
2022/01/26 10:45:15;;;;;;;131.13;42.13;;;;;;;;;;5045839;28;20216;-68
2022/01/26 10:47:46;;;;;;;133.57;44.33;;;;;;;;;;5045328;28;20265;-67
2022/01/26 10:50:42;;;;;;;132.60;44.20;;;;;;;;;;5044968;28;20190;-67
2022/01/26 10:53:11;;;;;;;131.00;43.10;;;;;;;;;;5043871;28;20258;-68
2022/01/26 10:55:38;;;;;;;132.33;41.37;;;;;;;;;;5045536;28;20238;-68
2022/01/26 10:58:05;;;;;;;133.10;42.67;;;;;;;;;;5043002;28;20589;-68
2022/01/26 11:00:34;;;;;;;120.50;39.77;;;;;;;;;;5048064;28;20169;-68
2022/01/26 11:03:00;;;;;;;132.00;41.50;;;;;;;;;;5044849;28;20625;-68
2022/01/26 11:05:26;;;;;;;128.50;42.97;;;;;;;;;;5046773;28;20231;-68
2022/01/26 11:07:51;;;;;;;135.60;42.83;;;;;;;;;;5046582;28;20588;-68
2022/01/26 11:10:18;;;;;;;131.50;42.43;;;;;;;;;;5043902;28;20323;-68
2022/01/26 11:12:43;;;;;;;127.70;40.40;;;;;;;;;;5046620;28;20716;-68
2022/01/26 11:15:09;;;;;;;133.10;41.43;;;;;;;;;;5045472;28;20276;-68
2022/01/26 11:17:39;;;;;;;121.93;39.20;;;;;;;;;;5044160;28;20188;-68
2022/01/26 11:20:19;;;;;;;112.23;38.30;;;;;;;;;;5044333;28;20203;-68
2022/01/26 11:22:59;;;;;;;109.13;37.27;;;;;;;;;;5045837;28;20190;-68
2022/01/26 11:25:28;;;;;;;121.03;39.87;;;;;;;;;;5048431;28;20258;-69
2022/01/26 11:27:54;;;;;;;115.00;38.70;;;;;;;;;;5044111;28;20216;-68
2022/01/26 11:30:40;;;;;;;113.03;37.07;;;;;;;;;;5043452;28;20587;-69
2022/01/26 11:33:13;;;;;;;115.70;38.63;;;;;;;;;;5040797;28;20197;-68
2022/01/26 11:35:43;;;;;;;108.50;37.80;;;;;;;;;;5042773;28;20197;-68
2022/01/26 11:46:27;;;;;;;103.70;34.90;;;;;;;;;;5043363;28;20208;-68
2022/01/26 11:49:26;;;;;;;112.30;36.33;;;;;;;;;;5043557;28;20205;-68
2022/01/26 11:51:56;;;;;;;99.37;34.63;;;;;;;;;;5043352;28;20201;-68
2022/01/26 11:54:24;;;;;;;108.77;35.77;;;;;;;;;;5042585;28;20188;-68
2022/01/26 11:57:01;;;;;;;100.63;34.83;;;;;;;;;;5042957;28;20239;-68
2022/01/26 11:59:30;;;;;;;103.20;37.00;;;;;;;;;;5046950;28;20195;-67
2022/01/26 12:02:07;;;;;;;100.33;34.57;;;;;;;;;;5042506;28;20205;-67
2022/01/26 12:04:36;;;;;;;98.47;34.13;;;;;;;;;;5046604;28;20201;-68
2022/01/26 12:07:21;;;;;;;95.43;34.30;;;;;;;;;;5038603;28;20217;-68
2022/01/26 12:09:47;;;;;;;92.03;32.33;;;;;;;;;;5039223;28;20898;-68
2022/01/26 12:12:20;;;;;;;84.50;29.43;;;;;;;;;;5042451;28;20284;-68
2022/01/26 12:15:00;;;;;;;86.27;31.93;;;;;;;;;;5045605;28;20192;-68
2022/01/26 12:17:30;;;;;;;83.00;28.67;;;;;;;;;;5041143;28;20201;-68
2022/01/26 12:34:35;;;;;;;74.60;27.63;;;;;;;;;;5048111;28;20224;-68
2022/01/26 12:41:09;;;;;;;70.30;28.50;;;;;;;;;;5043761;28;20605;-68
2022/01/26 12:42:24;;;;;;;72.53;27.73;;;;;;;;;;5045270;28;20181;-68
2022/01/26 12:45:00;;;;;;;72.27;27.50;;;;;;;;;;5035961;28;20213;-68
2022/01/26 12:47:28;;;;;;;70.23;26.37;;;;;;;;;;5035293;28;20209;-67
2022/01/26 12:49:55;;;;;;;79.30;28.93;;;;;;;;;;5038242;28;20726;-67
2022/01/26 12:52:21;;;;;;;72.23;26.93;;;;;;;;;;5032557;28;20197;-67
2022/01/26 12:54:46;;;;;;;73.67;26.97;;;;;;;;;;5039282;28;20193;-68
2022/01/26 12:57:13;;;;;;;62.50;25.77;;;;;;;;;;5035296;28;20177;-68
2022/01/26 12:59:39;;;;;;;75.77;26.90;;;;;;;;;;5034175;28;20185;-68
2022/01/26 13:02:04;;;;;;;72.30;27.27;;;;;;;;;;5035257;28;20197;-68
2022/01/26 13:04:30;;;;;;;64.93;25.13;;;;;;;;;;5039826;28;20194;-68
2022/01/26 13:06:55;;;;;;;69.93;26.20;;;;;;;;;;5037309;28;20300;-68
2022/01/26 13:09:29;;;;;;;65.97;24.97;;;;;;;;;;5042525;28;20296;-68
2022/01/26 13:11:59;;;;;;;73.10;25.70;;;;;;;;;;5041157;28;20240;-68
2022/01/26 13:14:42;;;;;;;64.97;25.77;;;;;;;;;;5045103;28;20234;-68
2022/01/26 13:17:24;;;;;;;70.30;26.30;;;;;;;;;;5040233;28;20208;-68
2022/01/26 13:33:58;;;;;;;70.63;23.47;;;;;;;;;;5039928;28;20189;-68
2022/01/26 13:41:28;;;;;;;59.20;22.83;;;;;;;;;;5043646;28;20537;-68
2022/01/26 13:54:50;;;;;;;65.50;23.77;;;;;;;;;;5049649;28;20227;-68
2022/01/26 13:59:56;;;;;;;62.70;23.80;;;;;;;;;;5034352;28;20508;-68
2022/01/26 14:02:21;;;;;;;60.73;23.13;;;;;;;;;;5032465;28;20334;-68
2022/01/26 14:04:47;;;;;;;67.03;26.10;;;;;;;;;;5035970;28;20276;-68
2022/01/26 14:07:12;;;;;;;67.40;24.37;;;;;;;;;;5034335;28;20197;-67
2022/01/26 14:09:38;;;;;;;65.13;25.87;;;;;;;;;;5031702;28;20292;-67
2022/01/26 14:12:05;;;;;;;74.40;26.40;;;;;;;;;;5033464;28;20232;-67
2022/01/26 14:14:37;;;;;;;72.13;24.73;;;;;;;;;;5033064;28;20204;-69
2022/01/26 14:17:13;;;;;;;64.50;25.47;;;;;;;;;;5033170;28;20193;-68
2022/01/26 14:22:36;;;;;;;69.83;27.03;;;;;;;;;;5034117;28;20307;-67
2022/01/26 14:25:25;;;;;;;65.27;25.87;;;;;;;;;;5033418;28;20211;-67
2022/01/26 14:27:54;;;;;;;62.50;25.07;;;;;;;;;;5032103;28;20173;-67
2022/01/26 14:50:55;;;;;;;66.10;25.67;;;;;;;;;;5035015;28;20192;-67
2022/01/26 15:50:54;;;;;;;71.60;28.20;;;;;;;;;;5041172;28;20262;-68
2022/01/26 15:57:17;;;;;;;71.37;26.93;;;;;;;;;;5043689;28;20271;-69
2022/01/26 15:59:05;;;;;;;74.63;27.57;;;;;;;;;;5046093;28;20346;-68
2022/01/26 16:07:04;;;;;;;76.17;27.37;;;;;;;;;;5041209;28;20197;-68
2022/01/26 16:26:23;;;;;;;73.43;28.30;;;;;;;;;;5036883;28;20286;-67
2022/01/26 17:11:11;;;;;;;76.67;30.20;;;;;;;;;;5041871;28;20487;-68
2022/01/26 17:12:48;;;;;;;76.20;29.97;;;;;;;;;;5042364;28;20651;-68
2022/01/26 18:07:13;;;;;;;79.90;32.10;;;;;;;;;;5045115;28;20192;-68
2022/01/26 18:39:17;;;;;;;75.13;29.40;;;;;;;;;;5033124;28;20191;-68
2022/01/26 18:46:51;;;;;;;70.03;30.97;;;;;;;;;;5033615;28;20181;-68
2022/01/26 18:49:19;;;;;;;79.17;30.67;;;;;;;;;;5028778;28;20217;-68
2022/01/26 18:51:53;;;;;;;70.77;30.97;;;;;;;;;;5031306;28;20651;-68
2022/01/26 18:54:21;;;;;;;73.27;31.37;;;;;;;;;;5032861;28;20192;-68
2022/01/26 18:56:47;;;;;;;77.10;30.57;;;;;;;;;;5034853;28;20668;-68
2022/01/26 18:59:14;;;;;;;77.53;31.33;;;;;;;;;;5037609;28;20296;-67
2022/01/26 19:01:40;;;;;;;76.93;31.23;;;;;;;;;;5034997;28;20220;-68
2022/01/26 19:04:05;;;;;;;76.30;31.23;;;;;;;;;;5038524;28;20198;-67
2022/01/26 19:06:31;;;;;;;73.90;30.50;;;;;;;;;;5037111;28;20259;-68
2022/01/26 19:08:56;;;;;;;75.80;31.43;;;;;;;;;;5035881;28;20289;-67
2022/01/26 19:11:22;;;;;;;77.20;29.80;;;;;;;;;;5035679;28;20225;-68
2022/01/26 19:13:48;;;;;;;78.57;32.07;;;;;;;;;;5037122;28;20369;-69
2022/01/26 19:16:33;;;;;;;72.10;31.97;;;;;;;;;;5032028;28;20226;-68
2022/01/26 19:19:21;;;;;;;81.20;33.13;;;;;;;;;;5035455;28;20519;-68
2022/01/26 19:22:00;;;;;;;77.03;32.90;;;;;;;;;;5035778;28;20281;-68
2022/01/26 19:33:27;;;;;;;78.03;33.50;;;;;;;;;;5036973;28;20595;-68
2022/01/26 19:43:37;;;;;;;83.53;35.50;;;;;;;;;;5047275;28;20197;-68
2022/01/26 19:46:16;;;;;;;85.13;35.20;;;;;;;;;;5045776;28;20547;-69
2022/01/26 19:51:25;;;;;;;84.27;36.50;;;;;;;;;;5047639;28;20268;-68
2022/01/26 19:53:51;;;;;;;84.40;36.00;;;;;;;;;;5046361;28;20618;-69
2022/01/26 19:56:16;;;;;;;85.77;33.93;;;;;;;;;;5050023;28;20173;-68
2022/01/26 19:58:42;;;;;;;83.83;34.13;;;;;;;;;;5042941;28;20259;-68
2022/01/26 20:01:07;;;;;;;83.60;36.10;;;;;;;;;;5044746;28;20174;-68
2022/01/26 20:03:35;;;;;;;84.53;36.80;;;;;;;;;;5042396;28;20194;-68
2022/01/26 20:06:03;;;;;;;93.20;35.80;;;;;;;;;;5048343;28;20177;-68
2022/01/26 20:08:43;;;;;;;85.93;36.13;;;;;;;;;;5043845;28;20230;-68
2022/01/26 20:11:13;;;;;;;88.60;37.53;;;;;;;;;;5046766;28;20221;-68
2022/01/26 20:13:42;;;;;;;87.90;36.47;;;;;;;;;;4342719;28;10000720;-68
2022/01/26 20:16:10;;;;;;;87.07;36.37;;;;;;;;;;5038718;28;20189;-68
2022/01/26 20:18:37;;;;;;;94.97;37.30;;;;;;;;;;5039011;28;20205;-68
2022/01/26 20:21:03;;;;;;;92.17;37.80;;;;;;;;;;5041469;28;20266;-68
2022/01/26 20:23:33;;;;;;;89.20;36.90;;;;;;;;;;5041051;28;20185;-68
2022/01/26 20:26:01;;;;;;;87.90;37.20;;;;;;;;;;5040469;28;20193;-68
2022/01/26 20:28:29;;;;;;;88.60;37.37;;;;;;;;;;5043464;28;20762;-69
2022/01/26 20:30:55;;;;;;;97.43;37.87;;;;;;;;;;5043402;28;20266;-68
2022/01/26 20:33:20;;;;;;;83.77;35.20;;;;;;;;;;5039860;28;20242;-69
2022/01/26 20:35:46;;;;;;;89.57;36.87;;;;;;;;;;5041740;28;20189;-68
2022/01/26 20:38:12;;;;;;;90.23;37.17;;;;;;;;;;5039960;28;20281;-68
2022/01/26 20:40:38;;;;;;;98.27;37.77;;;;;;;;;;5035277;28;20208;-69
2022/01/26 20:43:03;;;;;;;90.53;36.97;;;;;;;;;;5030661;28;20221;-68
2022/01/26 20:45:30;;;;;;;83.63;35.80;;;;;;;;;;5035935;28;20268;-68
2022/01/26 20:47:57;;;;;;;87.33;36.77;;;;;;;;;;5036772;28;20192;-68
2022/01/26 20:50:24;;;;;;;95.93;37.43;;;;;;;;;;5033870;28;20442;-68
2022/01/26 20:52:49;;;;;;;89.97;36.93;;;;;;;;;;5038726;28;20189;-68
2022/01/26 20:55:15;;;;;;;89.07;36.17;;;;;;;;;;4688909;28;10000620;-70
2022/01/26 20:57:41;;;;;;;83.03;34.37;;;;;;;;;;5039366;28;20198;-68
2022/01/26 21:00:09;;;;;;;91.53;34.93;;;;;;;;;;5041751;28;20277;-68
2022/01/26 21:02:35;;;;;;;82.13;35.07;;;;;;;;;;5038110;28;20201;-68
2022/01/26 21:05:01;;;;;;;85.53;35.83;;;;;;;;;;5044040;28;20196;-69
2022/01/26 21:07:26;;;;;;;86.67;35.93;;;;;;;;;;5035796;28;20300;-68
2022/01/26 21:09:52;;;;;;;84.10;34.43;;;;;;;;;;5041954;28;20213;-68
2022/01/26 21:12:17;;;;;;;81.33;33.53;;;;;;;;;;5041005;28;20205;-68
2022/01/26 21:14:43;;;;;;;83.37;32.63;;;;;;;;;;5044205;28;20185;-68